Member area
Imprimable
Braine le comte, 20/02/2016, BEL - Trail Des Bosses
List of reports > 25km - Result
Search: Page: [1]
495 Entries
 
Complains are not accepted anymore. Results are final.
Category
PosNrNameAgeNATTeamRealTimeTkmMoy.PlaceNameCity
1.285DUPONT Eddy47BELBORN TO RUN/NAC1:53:211:53:214:33 13.231v1hECAUSSINNES
2.205DEBASTE Frédéric35BELRCB1:53:361:53:364:33 13.211sehJETTE
3.188CLAM Simon32BELCOM'IN TRI1:58:051:58:054:44 12.702sehFLOBECQ
4.683LEYN Donovan22BEL2:04:192:04:234:59 12.063sehMENEN
5.255DESTREBECQ Francois42BELET CHIÈVRES2:04:332:04:334:59 12.042v1hFRASNES
6.287DURIEU Antoine33BELSURICATE RUNNER2:05:002:05:035:01 12.004sehBRAINE LE CHATEAU
7.696GIVRON Régis Robert26BELJC THIMEON2:05:282:05:325:02 11.955sehCHARLEROI
8.459MOULIN Jordy28BEL2:07:412:07:425:07 11.756sehKAIN
9.577VAN CAMP Sebastien41BELNAC2:08:272:08:315:09 11.673v1hVIRGINAL
10.164CAMPION Jonas34BEL2:08:392:08:425:09 11.667sehCOURT ST ETIENNE
11.187CLAM Pierre37BELSPORTOASE TRIAT2:09:082:09:095:10 11.628sehBOSI DE LESSINES
12.363JOBKEN Olivier37BELGAZELLES DE SNE2:09:392:09:395:12 11.579sehBRAINE-LE-COMTE
13.434MAQUET Jean-Charles30BELBATIFER TRIATHL2:10:062:10:105:13 11.5210sehLIBRAMONT
14.245DEPAEPE Patrick46BEL2:11:202:11:215:16 11.424v1hTHIEUSIES
15.596VANGROOTENBRUEL Ludovic40BELPDT2:13:452:13:465:22 11.215v1hELLEZELLES
16.341HAZETTE Henri32BELADDM2:13:532:13:575:22 11.2011sehELLEZELLES
17.479PERZYNA Christophe34BELACLO2:14:052:14:115:23 11.1812sehSAINT-VAAST
18.230DELERS Maximilien30BELTHEODO TEMPO2:14:372:14:375:24 11.1413sehMONS
19.656CORNET Denis40BELATCC2:14:362:14:395:24 11.146v1hTHIMEON
20.649LEBORGNE Michaël31BEL2:14:482:14:525:24 11.1214sehBAUDOUR
21.408LIEGEOIS Vincent43BELMADRES2:14:422:14:535:24 11.127v1hHONNELLES
22.571VANAISE Jérôme38BELET CHIÈVRES2:15:062:15:085:25 11.1015sehOEUDEGHIEN
23.338HARPIGNY Cedric40BELB-RAIL2:15:342:15:395:26 11.068v1hOBOURG
24.162BUTAYE Olivier35BELDÉ'NIVELLÉS+2:16:072:16:135:27 11.0116sehNIVELLES
25.349HOSTE Tom42BELENFER DES COLLI2:16:172:16:225:28 11.009v1hOEUDEGHIEN
26.576VAN CAMP Laurent39BELTURBO2:16:212:16:255:28 11.0017sehHENRIPONT
27.266DIERICKX Jose64BELNAC2:16:402:16:475:29 10.971v3hNIVELLES
28.552TASSET Jean-Marc45BELUSBW2:17:212:17:255:30 10.9210v1hBRAINE-L'ALLEUD
29.141BORCEUX Francois45BELRCB2:17:512:17:555:31 10.8811v1hBRUXELLES
30.539SIMON Nicolas40BELRCB2:17:512:17:555:31 10.8812v1hEVERE
31.1157PIGEOLET François45BEL2:18:232:18:295:33 10.8313v1hHENNUYÈRES
32.321GLORIEUX Jonathan34BEL2:18:382:18:485:34 10.8118sehESTAIMPUIS
33.446MEHOUDENS Alain55BELJOGGING ENTITÉ 2:18:562:19:055:34 10.791v2hTUBIZE
34.231DELERUE Jean-François47BELENFER DES COLLI2:18:312:19:135:35 10.7814v1hFRASNES-LEZ-BUISSENAL
35.177CHARLIER Benoît46BEL2:19:132:19:205:35 10.7715v1hBRUXELLES
36.158BUET Thomas34FRA2:20:012:20:105:37 10.7019sehSCHAERBEEK
37.544SPILIERS Nicolas26BEL2:20:112:20:295:38 10.6820sehALSEMBERG
38.498RESMINI Federico44ITAUSBW ROAD TEAM2:21:242:21:255:40 10.6116v1hBRAINE-L'ALLEUD
39.614VERRELLEN Stephane49BELET ENGHIEN2:21:172:21:445:41 10.5817v1hHELLEBECQ
40.665STORM Jean-Paul51BEL2:21:382:22:205:42 10.542v2hWALHAIN
41.643DESCAMPS François35BELTHÉODO TEMPO2:22:362:22:425:43 10.5121sehMONTIGNIES LEZ LENS
42.106ANCION Pierre-Yves34BEL2:22:452:22:545:43 10.5022sehSAINT-GILLES
43.627WATTIAUX Coli35BELBORN TO RUN2:23:222:23:295:45 10.4623sehBAULERS
44.652ROOBAERT Christopher37BEL2:23:462:23:485:46 10.4324sehNIVELLES
45.253DE SMAELE Nicolas33BELSURICATES RUNNE2:23:532:23:565:46 10.4225sehPEISSANT
46.476PEETERS Ben37BEL2:23:382:24:025:46 10.4126sehGOOIK
47.140BOOT Arjan41NLD2:24:082:24:125:47 10.4018v1hKLOETINGE
48.241DE MÛELENAERE Benoit36BEL2:23:592:24:135:47 10.4027sehJETTE
49.295FALIZE Emile46BELESM2:25:142:25:295:50 10.3119v1hJONCRET
50.684VER EECKE Koen37BEL2:25:302:25:355:50 10.3028sehMEULEBEKE
51.301FOHAL Jean-Luc51BELETCHIEVRES2:25:252:25:415:50 10.303v2hMESLIN L'EVEQUE
52.1077HAULAIT Alain48BELHAC2:25:392:25:445:50 10.2920v1hBRAINE LE COMTE
53.204DEBACQ Jimmy25BELCOMIN TRI2:26:032:26:035:51 10.2729sehLE BIZET
54.685DU BOIS Michaël46BEL2:25:502:26:095:51 10.2621v1hOPWIJK
55.222DE KEYZER Jeremie35BEL2:26:032:26:185:52 10.2530sehRONSE
56.524SCHULLER Grégory29BELGANT JOGGANS2:27:112:27:135:54 10.1931sehGANSHOREN
57.413LONEZ Thomas34BEL2:27:362:27:385:55 10.1632sehBRUXELLES
58.404LETERME Bernard36BEL2:27:262:27:435:55 10.1633sehMOLENBEEK-ST-JEAN
59.145BOTTE Vinecnt39BELE.T.ENGHIEN2:27:142:27:435:55 10.1634sehGROOT BIJGAARDEN
60.182CHRISTIAENS Alexandre34BEL2:27:382:27:475:55 10.1535sehRÈVES
61.464NIEUBOURG Andy28BELOEH2:27:332:27:505:55 10.1536sehHALLE
62.449METHENIER Anthony32FRARCB2:27:532:27:575:56 10.1437sehSAINT GILLES
63.508ROMMELAERE Bjorn40BELMIDLON2:28:032:28:115:56 10.1222v1hOOSTVLETEREN
64.419MAERTEN Mattias40BELMIDLON2:28:042:28:115:56 10.1223v1hZEVEKOTE
65.603VANNOORENBERGHE Cédric26BELRRTC2:28:232:28:245:57 10.1138sehSOIGNIES
66.262DEWANDELEER Bart29BELKWB WAMBEEK RUN2:28:262:28:315:57 10.1039sehVILVOORDE
67.273DREZE Christian53BELNAC2:28:142:28:435:57 10.094v2hNIVELLES
68.331GRUMERMER Christian39FRAVIKING SOLITAIR2:28:522:28:555:58 10.0740sehHASNON
69.407LHEUREUX François35BEL2:28:502:28:575:58 10.0741sehECAUSSINNES
70.406LETOT Christophe31BEL2:29:092:29:165:59 10.0542sehHORNU
71.555TENAUD Valentin36FRALES STUDS2:29:462:29:516:00 10.0143sehANDENNE
72.572VANAISE Tommy37BEL2:30:002:30:026:01 10.0044sehKAIN
73.638ZICOT Christophe42BELZICOT TEAM2:29:592:30:056:01 9.9924v1hAUVELAIS
74.378LANGOHR Julien35BEL2:30:562:31:016:03 9.9345sehRIXENSART
75.138BOMPAS Jeremy33BELRJC MONS2:31:082:31:546:05 9.8846sehHYON
76.332GRUMERMER Christophe43FRA2:32:022:32:046:05 9.8625v1hRAISMES
77.514ROZMANOWSKI Michael42FRALES SANGLIERS D2:32:012:32:046:05 9.8626v1hRAISMES
78.128BERTRAND Cédric42BEL2:32:452:33:026:08 9.8027v1hBRUXELLES
79.472FPAREIN Estelle24BELACLO2:33:032:33:066:08 9.801sefLA LOUVIERE
80.640BLONDIAUX Maxime34BEL2:34:062:34:246:11 9.7247sehWADELINCOURT
81.366FKAKIETEK Diana36BELCEPAL2:34:002:34:306:11 9.711v1fRUISBROEK
82.271DORSIMONT Sébastien39BEL2:34:012:34:426:12 9.7048sehECAUSSINNES
83.226DELATTE Sylvain40BEL2:34:562:35:266:14 9.6528v1hHORRUES
84.462NAHON Raphael42BELLES DÉRAILLÉS2:34:582:35:276:14 9.6529v1hBRAINE-LE-COMTE
85.212DECLERCQ Joe58BELCEPAL2:35:382:35:426:14 9.635v2hBRUXELLES
86.373LALLEMAND Luc56BELCEPAL2:35:252:35:566:15 9.626v2hLAEKEN
87.550TABARY Arduin31BELENFER DES COLLI2:35:322:36:176:16 9.6049sehHOVES
88.385LECONTE Simon33BELENFER DES COLLI2:35:352:36:196:16 9.6050sehTOURNAI
89.591VANDER MASSEN Marc54BELENFER DES COLLI2:35:362:36:236:16 9.597v2hFRASNES-LEZ-ANVAING
90.258DETOLLENAERE Damien36BELETM MOUSCRON2:36:532:37:016:17 9.5551sehHERSEAUX
91.293ERNST Xavier32BELRCBT2:37:112:37:166:18 9.5452sehJETTE
92.211DECHIEF Erwin29BEL/2:37:162:37:356:19 9.5253sehHALLE
93.553TASSOU Sebastien42FRA19772:38:162:38:186:20 9.4830v1hFRESNES SUR ESCAUT
94.584NR 584 XXX2:37:442:38:286:21 9.471xxx
95.621FVIRGINIE Bongiovanni44BELACLO2:38:342:38:376:21 9.462v1fLA LOUVIÈRE
96.538SIMÉONS Patrick35BELNAC2:38:092:38:446:21 9.4554sehBAISY THY
97.308FRENNET Philippe34BELRCBT2:38:502:38:566:22 9.4455sehBRUXELLES
98.335HALKIN Didier44BEL2:39:332:39:406:24 9.4031v1hSENEFFE
99.154BREYNE Guillaume39BELENDURANCE TEAM 2:39:412:39:486:24 9.3956sehMOUSCRON
100.654TONNIAU Marnix47BEL2:39:462:39:596:24 9.3832v1hGENT
101.259FDETRY Marie39BEL2:38:542:40:016:25 9.373v1fBRAINE-LE-CHÂTEAU
102.504FROGMANS Ingrid43BELCABW2:39:572:40:046:25 9.374v1fTHIMÉON
103.520SALMIN Francois32BELLES CHARROGNARD2:40:082:40:206:25 9.3657sehSTREE
104.694ERTVELD Eric48BELHAC2:40:312:40:356:26 9.3433v1hBRAINE LE COMTE
105.101ADAMS Jean-Louis38BEL2:41:212:41:276:28 9.2958sehBRUXELLES
106.345HOLLANTS Johan34BEL2:41:302:41:396:28 9.2859sehMECHELEN
107.233DELFOSSE François35BEL2:41:372:42:036:29 9.2660sehBRUXELLES
108.441MASSART J-F53BELGAG GEMBLOUX2:42:152:42:196:30 9.248v2hGEMBLOUX
109.161BURNIAUX François31BEL2:42:172:42:326:31 9.2361sehUCCLE
110.536SEYNAEVE Frank37BEL2:42:252:42:496:31 9.2162sehDEURNE
111.624WALLÉE Alain60BELTENDONS LA HULP2:42:342:42:546:31 9.212v3hLA HULPE
112.483PIERLOT Nicolas47BEL2:42:372:43:056:32 9.2034v1hBERTRIX
113.529SEBASTIEN Wilputte37BELRRB/TCHAT'S2:43:082:43:176:32 9.1963sehMORLANWELZ
114.605VANROBAEYS Dominique35BEL2:42:522:43:226:33 9.1864sehDEINZE
115.590FVANDER MASSEN Helene28BELENFER DES COLLI2:43:142:43:586:34 9.152sefHOVES
116.340HAVAUX Jean-Daniel57BELNAC2:44:162:44:236:35 9.139v2hBORNIVAL
117.428MALBRECQ Bernard59BELLES MOUSQUETRAI2:44:312:44:436:36 9.1110v2hSOIGNIES
118.534SEVENS Quentin31BELMOUSQUETRAILS2:44:222:44:446:36 9.1165sehBRAINE-LE-COMTE
119.653TELLIER Christophe34BEL2:44:282:44:536:36 9.1066sehVILLERS-LA-VILLE
120.236DELMAY Yaël35BELRJC MONS2:44:132:45:006:36 9.0967sehHARVENG
121.673BIGOON Jean37BEL2:44:342:45:126:37 9.0868sehCOUILLET
122.648JOSSE Philippe48BELN/A2:44:382:45:306:38 9.0635v1hREVES
123.133BILLEN Pierre45BEL2:45:262:45:446:38 9.0536v1hRAMILLIES
124.284DUPART Hervé47FRA2:45:292:45:466:38 9.0537v1hTUBIZE
125.115FBAKRIM Fatima47BELBORN TO RUN2:45:442:45:556:39 9.041v2fPETIT-ROEULX-LEZ-BRAINE
126.351HOUDMONT Arnaud49BELRUNATTITUDE2:45:272:45:586:39 9.0438v1hHÉVILLERS
127.543SPELMANS Christophe50BELATCC2:45:482:45:596:39 9.0411v2hPETIT-ROEULX-LEZ-BRAINE
128.509ROOSENS Frans28BELMOUSQUETRAILS2:45:542:46:166:40 9.0269sehBRAINE-LE-COMTE
129.604VANNUSCORPS Frédéric47BELACLO2:46:232:46:266:40 9.0139v1hHOUDENG-AIMERIES
130.700PIRET Olivier39BELHOC2:45:362:46:286:40 9.0170sehLOBBES
131.131FBEYRA-VANNESTE Ana-Luisa44BEL2:45:562:46:416:41 9.005v1fMONT-SAINT-GUIBERT
132.214DECUYPERE Steven32BELOEH2:46:312:46:506:41 8.9971sehHALLE
133.326GONZE Michel59BELURBAN TRI SPORT2:47:062:47:166:42 8.9712v2hBRAINE-L'ALLEUD
134.144BOSMANS Nicolas43BEL2:47:092:47:216:42 8.9640v1hBRAINE-LE-CHÂTEAU
135.189CLOQUET Jean-Philippe39BEL2:47:112:47:246:42 8.9672sehFELUY
136.417MABILLE Olivier37BELVERTIGO2:47:212:47:416:43 8.9573sehERBISOEUL
137.677MAZZAGUFO Samuel40BELBELFIUS2:47:232:48:006:44 8.9341v1hHAM-SUR-HEURE-NALINNES
138.372LAHAYE Vincent24BELRUNNIN'GREZ2:47:042:48:036:44 8.9374sehGREZ-DOICEAU
139.165CAPOUET Mathieu35BEL2:47:022:48:066:44 8.9275sehLES BONS VILLERS
140.354IKER Francois37BELRUN ATTITUDE - 2:47:432:48:166:44 8.9276sehMONT-SAINT-GUIBERT
141.644DESCHUYTENEER Stéphane39BELET CHIÈVRES2:47:232:48:246:45 8.9177sehATH
142.485PIGEOLET Vincent36BELTLF2:48:312:48:376:45 8.9078sehHENNUYERES
143.384FLEBLOND VERHAEGHE Isabelle36FRAA C WAMBRECHIES2:48:362:48:416:45 8.896v1fWAMBRECHIES
144.1170VERHAEGHE Michel40FRAA C WAMBRECHIES2:48:402:48:456:45 8.8942v1hWAMBRECHIES
145.111ANTON Pierre-Amaury17BEL2:49:102:49:156:47 8.861eshBRUXELLES
146.608VERGNOL Arnaud32FRA2:48:452:49:226:47 8.8679sehSAINT JOSSE
147.147BOUCHER Richard51BELLES CYCLOS DE L2:49:052:49:456:48 8.8413v2hVIRGINAL
148.268DOMINICY François41BELLES STUDS2:49:532:49:536:48 8.8343v1hBRUXELLES
149.559FTHIRY Catherine41BEL2:49:582:50:026:49 8.827v1fTHIEUSIES
150.157BRUNIN Adrien35BELNÉANT2:48:572:50:236:49 8.8080sehMONS
151.599VANHUYSSE Olivier40BELRCB TRAIL2:50:152:50:416:50 8.7944v1hDIEGEM
152.502RIOTTE Pascal54FRA2:50:402:50:516:51 8.7814v2hRONQUIÈRES
153.448MENU Eric50BEL2:50:412:50:526:51 8.7815v2hBRAINE-L'ALLEUD
154.672FILVEZ Philippe44BEL2:51:032:51:096:51 8.7645v1hENGHIEN/EDINGEN
155.368KENDA Damien43BELTHEODO TEMPO2:51:022:51:156:51 8.7646v1hNEUFVILLES
156.469OUBELLA Lahcen41BELNCFYC2:51:282:51:476:53 8.7347v1hMARCINELLE
157.136BLONDIAU Marc49BELANTOINETTE ET 2:51:482:51:506:53 8.7348v1hBRAINE-LE-COMTE
158.598VAN HULLE François31BEL2:51:512:51:526:53 8.7381sehTOURNAI
159.542SOENEN Wannes35BEL2:51:272:52:056:53 8.7282sehBORGERHOUT
160.256DE STREEL Géraud24BELRUNNIN'GREZ2:51:112:52:106:54 8.7183sehBOSSUT
161.217DEFLEUR Kévin31BEL2:52:212:52:316:55 8.7084sehFOSSES LA VILLE
162.499REVILLOD Sebastien35BELAMBASSADEUR UT42:52:222:52:316:55 8.6985sehST GERARD
163.634YERNAUX Brice28BEL2:52:012:52:396:55 8.6986sehBRUSSELS
164.689SEPULCHRE Antoine28BELTEAM 582:52:042:52:416:55 8.6987sehBRUSSELS
165.699FCOUMPOURAS Geraldine38BELABPSE2:52:342:52:466:55 8.688v1fHAVRE
166.172CERNY Jean50BELRJC MONS2:52:142:53:016:56 8.6716v2hLE REOULX
167.203DAVIS Joel30FRA2:52:392:53:136:56 8.6688sehHUY
168.531FSELY Diane31BELDEURNESE IJSBER2:53:042:53:406:57 8.643sefWOMMELGEM
169.440MARTENS Dirk53BELDEURNESE IJSBER2:53:092:53:416:57 8.6417v2hDEURNE
170.471PAGNOZZI Fabio39BELACLO2:53:432:53:476:58 8.6389sehLA LOUVIÈRE
171.289EL HASSANI Marwan23BELUSI2:52:422:53:516:58 8.6390sehBRUXELLES
172.149BOULET Etienne35BELECUYER2:53:512:53:576:58 8.6291sehNIVELLES
173.697CABOSART Vincent32BEL2:53:442:54:016:58 8.6292sehJAMBES
174.319GILTZ Daniel31DEULA GT2:53:122:54:036:58 8.6293sehMONTZEN
175.130BETTE Sébastien39BELRJC MONS2:53:212:54:066:58 8.6294sehMONS
176.156BRUNIAUX Pascal41FRA2:54:152:54:296:59 8.6049v1hCRESPIN
177.666VANDENBERGHE Yannick35BEL2:54:222:54:367:00 8.5995sehGHLIN
178.630WILLOCQ Christopher34BEL2:54:212:54:377:00 8.5996sehBOUSVAL
179.148BOULANGER Etienne41BELNAC2:54:392:54:487:00 8.5850v1hNIVELLES
180.219DEGROOTE Nicolaas41BELNAC2:54:402:55:097:01 8.5651v1hBRUXELLES
181.486PILLYSER Benoit40BELETM2:55:162:55:237:01 8.5552v1hMOUSCRON
182.251DEROUBAIX François32BELPOPUELLES DREAM2:55:002:55:467:02 8.5397sehTOURNAI
183.369KIESECOMS Pascal45BELETENGHIEN2:55:512:56:327:04 8.5053v1hMARCQ
184.519SALES Francois52BELE.T.ENGHIEN2:56:102:56:367:04 8.4918v2hENGHIEN
185.327FGOOSSENS Annick52BELE.T.ENGHIEN2:56:122:56:407:04 8.492v2fENGHIEN
186.121FBAUS Caroline36BELCEPAL2:56:182:56:477:05 8.499v1fIXELLES
187.619VINCENT Albert65BELETENGHIEN2:51:172:56:537:05 8.483v3hMARCQ
188.246FDE PATOUL Caroline40BEL2:56:222:56:577:05 8.4810v1fOTTIGNIES
189.178CHARLIER Benoît33BEL2:56:282:57:007:05 8.4898sehFELUY
190.248DE PATOUL Simon38BEL2:56:242:57:027:05 8.4799sehBRUXELLES
191.430MALCHAIRE Raphael41BEL2:56:442:57:107:06 8.4754v1hLIEGE
192.270DORCHY Quentin43BELTEMPLEUVE2:56:232:57:187:06 8.4655v1hTEMPLEUVE
193.561THYS Johan50BELETENGHIEN2:57:072:57:477:07 8.4419v2hHOVES
194.527SCOUPPE Gery54BELT.T.B.2:57:082:58:217:09 8.4120v2hBRAINE-L'ALLEUD
195.223FDELACENSERIE Carine41BELADDM OGY2:57:252:58:267:09 8.4111v1fPAPIGNIES
196.622VOLINO Fabrizio43ITA2:58:392:58:437:09 8.3956v1hNAAST
197.225DELANNOY Vincent55BELENFER DES COLLI2:57:572:58:437:09 8.3921v2hOEUDEGHIEN
198.597VANHEULE Nicolas39BEL2:58:152:58:487:10 8.39100sehGENVAL
199.418MACTELLICK Andre50BELADDM OGY2:57:502:58:517:10 8.3922v2hPAPIGNIES
200.525FSCOHY Sophie45BELMA/VA COACHING2:58:532:59:047:10 8.383v2f1400
201.194CORNET Emmanuel35BELE.T.ENGHIEN2:59:072:59:327:11 8.36101sehMARCQ
202.376LAMON Frédéric42BEL2:58:182:59:347:11 8.3557v1hBRAINE L'ALLEUD
203.169FCASTERMANS Melanie20BEL/2:59:082:59:377:12 8.354sefBRAINE-LE-COMTE
204.456MONTEYNE Charles63BELRCB/CEPAL2:58:582:59:387:12 8.354v3hKRAAINEM
205.569ULWELING Denis37BELJAMES2:59:152:59:397:12 8.35102sehHÉVILLERS
206.361JANSZEN Marc51BELANTILOB2:59:372:59:507:12 8.3423v2hLIMAL
207.371KOZLOWSKI Sebastien45FRAASAONNAING2:59:122:59:517:12 8.3458v1hSAINT-SAULVE
208.629WILLAME Alain49BELEUROCLEAR2:59:563:00:087:13 8.3359v1hBAISTHY
209.197FCRYNS Valérie49BELUSBW3:00:023:00:237:13 8.324v2fBRAINE L'ALLEUD
210.160BURION Alain49BELUSBW3:00:223:00:257:13 8.3160v1hBELGQIUE
211.274DROUILLON Philippe50BELNAC2:59:543:00:367:14 8.3124v2hNIVELLES
212.333GUILLAUME Stephane48BEL3:00:003:00:447:14 8.3061v1hGANSHOREN
213.252FDERUE Ingrid42FRA3:00:103:00:527:15 8.2912v1fWAVRE
214.680SCHILTZ Frederic39BEL3:00:543:01:097:15 8.28103sehSOMBREFFE
215.1057FONTAINE Luc60BEL3:00:583:01:557:17 8.255v3hPECQ
216.260DEVILLE Jean-Pol41BEL3:01:593:02:147:18 8.2362v1hAISCHE-EN-REAFIL
217.365JOURDAIN Pierre34BELJAMES3:01:593:02:147:18 8.23104sehAISCHE-EN-REFAIL
218.180CHEVALIER Jean50BELNAC3:02:573:03:067:20 8.1925v2hPETIT-ROEULX-LEZ-NIVELLES
219.181CHIECO Denis45BELRACLO3:03:303:03:307:21 8.1763v1hLA LOUVIÈRE
220.352HUBERT Gilles38BEL3:03:253:03:477:22 8.16105sehBRUXELLES
221.660LATOUR Christophe41BEL3:03:383:04:157:23 8.1464v1hBRUXELLES
222.580VANCUTSEM Jean Marie66BELRCB3:03:463:04:267:23 8.136v3hBRUXELLES
223.290ENGELS Marc53BEL3:03:433:04:437:24 8.1226v2hKRAAINEM
224.528SCUBLA Michael29BELCABW3:04:153:04:477:24 8.12106sehBRAINE LE COMTE
225.535SEYNAEVE Erik38BEL3:04:213:04:567:24 8.11107sehDEURNE
226.185CLAES Alexandre52BELDELHAIZE GROUP3:05:013:05:097:25 8.1027v2hRUISBROEK
227.186CLAES Arnaud30BEL3:05:103:05:107:25 8.10108sehHAINE SAINT PAUL
228.491POLLET Manu30BELLES BRANLEURSOL3:04:593:05:517:27 8.07109sehIXELLES
229.118FBARREA Cathy48BEL3:05:103:05:557:27 8.075v2fBRUXELLES
230.432MALENGREAUX Fabrice44BELSELLA RONDA TEA3:05:293:06:007:27 8.0665v1hELLEZELLES
231.487PIRARD Jean Luc49BELLES GOTTIGNIARD3:05:513:06:147:27 8.0566v1hGOTTIGNIES
232.655WENIN Nicolas33BEL3:05:503:06:157:27 8.05110sehJAMBES
233.495FREMIENCE Annick43BELTOUT LUI FAUT3:05:413:06:177:28 8.0513v1fBRAINE-LE-COMTE
234.642DEMESMAEKER Igor40BEL3:05:093:06:197:28 8.0567v1hBRUXELLES
235.686VANHOEGAERDEN Thierry28BELCOP3:05:213:06:217:28 8.05111sehLOUVAIN LA NEUVE
236.443FMATON Marie-Aurelie31BELTRIATH3:06:163:06:327:28 8.045sefCHIEVRES
237.305FFOUCART Pascaline42BELETENGHIEN3:06:123:06:527:29 8.0314v1fENGHIEN
238.480PETERS Andre55BEL3:05:593:06:557:29 8.0328v2hDION
239.315GILBERT Dominique51BELUSBW3:06:333:06:567:29 8.0229v2hBRUXELLES
240.620VIOLA Joseph39BELBC MANAGE3:06:173:07:147:30 8.01112sehSAINT-VAAST
241.602VAN NIEUWENHUYZE Eric48BELSELLA RONDA TEA3:07:373:08:077:32 7.9768v1hDERGNEAU
242.105ANCION Jean-Philippe45BELITMC23:07:593:08:217:33 7.9669v1hLA LOUVIÈRE
243.344HERREGODTS David41BEL3:08:233:08:377:33 7.9570v1hFRASNES-LEZ-ANVAING
244.611VERMEIRE Laurent40BELBADMINTON CLUB 3:07:433:08:397:33 7.9571v1hRESSAIX
245.283DUMONT Caryl41BELNAC3:08:193:08:477:34 7.9572v1hBINCHE
246.663PIENS Jerome38BELSWIFT3:08:073:09:147:35 7.93113sehGENVAL
247.224DELAEY Alexandre38BEL3:08:093:09:167:35 7.93114sehGENVAL
248.396FLENAERTS Bernadette55BELGANT3:08:473:09:417:36 7.911v3fBRUXELLES
249.322FGODEAU Ariane46BELJ.E.T.3:09:143:09:477:36 7.906v2fREBECQ
250.412LOMBARD Christian48BELBADMINTON CLUB 3:08:513:09:487:36 7.9073v1hLA LOUVIERE
251.109ANTOINE Luc39BEL3:09:213:09:527:36 7.90115sehREBECQ
252.587VAN DEN EYNDE Wim36BEL3:09:283:10:077:37 7.89116sehSINT-JORIS-WINGE
253.691VILAIN Guillaume36BEL3:10:043:10:147:37 7.89117sehWIERS
254.455MONTAINE Benoît50BEL3:10:053:10:167:37 7.8830v2hBRAINE-LE-COMTE
255.687FDEBONI Malorie32BELMYSTERE3:09:183:10:187:37 7.886sefUCCLE
256.318GILLET Christian52BEL3:10:103:10:217:37 7.8831v2hBRUXELLES
257.516FRUTAR Sophie28FRA3:09:223:10:227:37 7.887sefSAINT-GILLES
258.636ZAOUDI Said51BELRUNNING TEAM 113:09:393:10:257:37 7.8832v2hBRAINE-L'ALLEUD
259.470FOUMINA Bouchra42BEL3:10:163:10:277:38 7.8815v1fBRAINE LE COMTE
260.1109MARCHAND Yves51BELVERTIGO3:10:293:10:337:38 7.8733v2hLENS
261.567T'SIOBBEL Frédéric31BEL3:10:263:10:387:38 7.87118sehMARBAIS
262.515RUELLE Xavier44BEL3:10:243:10:397:38 7.8774v1hHOVES
263.562THYS Laurent39BELTOGISHI DOJO3:10:083:11:027:39 7.85119sehSOIGNIES
264.457MOREAU Christophe43BELJC DES COLLINES3:10:023:11:097:39 7.8575v1hFLOBECQ
265.297DE BACKER Dave42BEL3:10:053:11:117:39 7.8576v1hFLOBECQ
266.176CHARLES Stéphane42BELJC HÉRINNES3:10:103:11:157:39 7.8477v1hHÉRINNES
267.328GOOSSENS Jacky42BELHAC BRAINE-LE-C3:11:193:11:267:40 7.8478v1hBRAINE-LE-COMTE
268.329FGORTON Amy30GBR3:11:123:11:287:40 7.838sefMONS
269.320GLORIEUX Gert47BELH3O3:10:433:11:297:40 7.8379v1hLEMBEEK
270.549STRUYS Thomas28BEL3:11:233:11:347:40 7.83120sehMONS
271.493FPRUDENCIO Ibeliz34BOL3:11:273:11:437:41 7.829sefMONS
272.442MASSART Sebastien40BELGAG3:11:193:11:527:41 7.8280v1hGEMBLOUX
273.196CROHIN Gaëtan37BEL3:11:263:11:567:41 7.82121sehSOIGNIES
274.362JAROUD Said45BEL3:10:563:12:077:42 7.8181v1hBRUXELLES
275.250DERASSE Albert42BEL3:11:453:12:077:42 7.8182v1hHENNUYÈRES
276.347HOOLANS Benoît35BELSPTW3:12:203:12:557:43 7.78122sehDION-VALMONT
277.632FWODON Sophie49BEL3:12:183:13:087:44 7.777v2fCOURT ST ETIENNE
278.279DUFOUR Philippe50BELENFER DES COLLI3:12:243:13:157:44 7.7634v2hVELAINES
279.557THIENPONT Ivan49BEL3:12:363:13:187:44 7.7683v1hSOIGNIES
280.339HARVENT Joris45BELJODI3:12:463:14:027:46 7.7384v1hHAVRÉ
281.346HOLOFFE Didier50BELJODID3:12:473:14:047:46 7.7335v2hBRAINE-L'ALLEUD
282.356JANQUART Pierre33BEL3:14:133:14:397:48 7.71123sehNIVELLES
283.272FDREESSEN Joëlle43BEL3:14:003:15:127:49 7.6816v1fJAUCHELETTE
284.119BASIBEI Dimitri43BEL3:14:043:15:137:49 7.6885v1hCASTEAU
285.367KEGELS Laurent45BELHIS3:14:393:15:227:49 7.6886v1hBRUXELLES
286.447VAN DER STICHELEN LaurentBEL3:14:263:15:287:50 7.672xxx
287.477FCAZIER Isabelle38FRA3:14:313:15:337:50 7.6717v1fMOUSTIER
288.306FRANCART Renaud41BEL3:15:273:15:487:50 7.6687v1hJEMEPPE-SUR-SAMBRE
289.163BUYLE Jean56BEL3:15:043:15:517:51 7.6636v2hWETTEREN
290.631WINS Christophe33BEL3:15:313:15:537:51 7.66124sehETTERBEEK
291.129BERTRAND Dominique38BELTHEODO TEMPO3:15:583:16:227:52 7.64125sehBAUDOUR
292.681BAUDOUX Stéphane42BEL3:15:113:16:307:52 7.6388v1hIXELLES
293.647GODIN Nicolas44BELRAINBOW MULTISP3:16:403:16:437:53 7.6389v1hVEZON
294.578VAN CAUSBROUCK Joris25BEL3:16:293:16:567:53 7.62126sehHENNUYÈRES
295.132BÉZU Armel46FRA3:16:103:17:017:53 7.6190v1hMARQUILLIES
296.698WEYMANTS Antoine26BEL3:16:503:17:267:54 7.60127sehSCHAERBEEK
297.537SGALBIERO Orazio59ITA3:16:533:17:427:55 7.5937v2hTUBIZE
298.641DEBAY Pierre53BELCYCLO CLUB LILL3:16:483:17:467:55 7.5938v2hVILLERS-PERWIN
299.496RENAUD Gerard45BEL3:17:423:17:557:55 7.5891v1hLLN
300.240DEMEULEMEESTER Thomas39BEL3:17:083:18:007:56 7.58128sehTOURNAI
301.167FCASPERS Hannelore52BELOEH3:16:413:18:017:56 7.588v2fGOOIK
302.221DE KEYSER Rudy45BEL3:17:233:18:277:57 7.5692v1hBRAINE-LE-COMTE
303.566FTSHIBASU-KABEYA Aurore32BEL3:18:083:18:337:57 7.5510sefIXELLES
304.439FMARTENS Anja41BEL3:17:553:18:517:58 7.5418v1fFRASNES-LEZ-ANVAING
305.151BOUTRIAUX Michaël38BELETENGHIEN3:18:183:18:537:58 7.54129sehFOREST
306.426FMAHIEU Valentine32BELE.T.ENGHIEN3:18:203:18:547:58 7.5411sefBRUXELLES
307.232DELETTRE Jean-Cyril47FRA3:18:473:19:127:59 7.5393v1hEPPEGEM
308.645FDUGAUQUIER Catherine30BELETCHIEVRES3:19:143:19:337:59 7.5212sefWADELINCOURT
309.593VANDERVEKEN Damien35BEL3:18:323:19:357:59 7.52130sehLOUPOIGNE
310.213DE COCK Peter52BELACG3:19:413:19:448:00 7.5139v2hGERAARDSBERGEN
311.117BARBÉ Guido54BELACG GERAARDSBER3:19:423:19:468:00 7.5140v2hGERAARDSBERGEN
312.228DELBUSHAYE Christophe43BEL3:19:133:19:558:00 7.5094v1hSOIGNIES
313.609VERHEIRSTRAETEN Johnny53BELNEANT3:19:323:20:238:01 7.4941v2hBRUXELLES
314.348FHOSTE Myriam46BELGENTLOOPT3:19:293:20:328:02 7.489v2fGENT
315.679FDE BACKER Rachel48BEL3:19:573:20:438:02 7.4710v2fHÉVILLERS
316.343FHENNEUSE Mélanie42BEL3:20:133:20:468:02 7.4719v1fBRAINE-LE-COMTE
317.399FLEPIÈCE Aurélie46BEL3:21:093:21:528:05 7.4311v2fMONS
318.690COURTEQUISSE Yves55BEL3:21:213:22:048:05 7.4242v2hBRUXELLES
319.370FKOUBE Ingrid41BELUSI POWER3:21:033:22:118:06 7.4220v1fIXELLES
320.513ROUSSEAU Vincent47BEL3:21:103:22:138:06 7.4295v1hSOIGNIES
321.585FVANDENBULCKE Caroline37BEL3:21:263:22:188:06 7.4121v1fMOURCOURT
322.215FDEDEURWAERDER Leslie35BEL3:21:283:22:208:06 7.4122v1fARC-WATTRIPONT
323.267FDODEMONT Sabine33BELLA FRITE3:21:253:22:258:06 7.4113sefBRUXELLES
324.682MORITA Kazuhiro25JPN3:22:133:23:058:08 7.39131seh
325.218FDEGIVES Severine44BELJET3:22:403:23:088:08 7.3823v1fHENNUYERES
326.402FWAUTHIER Sandra43BEL3:22:333:23:348:09 7.3724v1fSINT-PIETERS-LEEUW
327.103FAERTS Cathlyne53BELJOGGANS3:22:343:23:358:09 7.3712v2fJETTE
328.545STIENNE Pierre46BELITMC23:23:353:23:568:10 7.3696v1hLE ROEULX
329.312GAUPIN Julien44BELMADRES ASBL3:23:443:24:068:10 7.3597v1hHAVRÉ
330.546STOCKMANS Thibaud38BELNAC3:23:433:24:158:11 7.34132sehCHASTRE
331.110ANTON Michel49BEL3:24:143:24:238:11 7.3498v1hBRUXELLES
332.414FLORIES Linda55BELAXA RUNNING TEA3:24:213:24:478:12 7.332v3fHALLE
333.592FVANDERSTOCKEN Sylvie39BELMADRES3:24:363:24:498:12 7.3225v1fDOUR
334.392LEHAIRE Ivan46FRAJ.E.T.3:24:163:24:518:12 7.3299v1h1480
335.263FDE WITTE Marguerite38BELRUNNING TEAM 113:24:153:24:588:12 7.3226v1fBRUXELLES
336.415FLOSSON Virginie37BELRUNNING TEAM 113:24:173:24:598:12 7.3227v1fBRUXELLES
337.489FPLAQUET Emmanuelle34BEL3:24:163:24:598:12 7.3214sefLANDRICHAMPS
338.675VAN GOEY Jeroen38BELGENTLOOPT.BE3:24:063:25:078:13 7.31133sehGENTBRUGGE
339.674FVAN AUDENHAEGE Karen30BEL3:24:053:25:078:13 7.3115sefGENT
340.453MINNE Jonathan32BELUN SOURIRE POUR3:24:453:25:138:13 7.31134sehBRAINE-LE-COMTE
341.307FREDERIC Chaufoureau38BEL3:24:423:25:158:13 7.31135sehNIVELLES
342.375FLAMBRET Christelle40BELTHEODO-TEMPO3:24:583:25:188:13 7.3128v1fGENLY-QUEVY
343.389LEFEBVRE Pascal36BELTHEODO-TEMPO3:25:023:25:218:13 7.30136sehSOIGNIES
344.451MICHOT Benjamin44BEL3:24:553:25:488:14 7.29100v1hEGHEZÉE
345.541FSMETS Natalie50BELNAC3:25:233:26:318:16 7.2613v2fHAUT ITTRE
346.595VAN EERDEWEGH André63BELVALLÉE DU HAIN3:25:153:26:338:16 7.267v3hREBECQ
347.229FDELCROIX Virginie47BELETE3:26:443:27:248:18 7.2314v2fSILLY
348.168FCASSART Laurence45BELRUNPRUNETTE3:26:453:27:258:18 7.2315v2fWÉPION
349.403FLESSENS Sabrina40BELET ENGHIEN3:27:013:27:368:19 7.2329v1f7830
350.410FLINDER Laurence38BELLES GAZELLES DE3:26:403:27:478:19 7.2230v1fNIVELLES
351.235FDELINCÉ Perrine37BELLES GAZELLES DE3:26:423:27:488:19 7.2231v1fSENEFFE
352.209FDE BOECK Nathalie35BELGAZELLES DE SNE3:26:413:27:498:19 7.2232v1fSENEFFE
353.633WOLF Alexis46BELGAZELLES DE SNE3:26:453:27:508:19 7.22101v1hSENEFFE
354.108FANDRY Nathalie42BELBORN TO RUN3:27:403:27:588:20 7.2133v1fMIGNAULT
355.668FVERVY Emilie29BEL3:27:433:28:048:20 7.2116sefLANEFFE
356.210DECHENTINNES Christian65BELTLF3:27:103:28:048:20 7.218v3hLASNE
357.664PÂQUET Olivier27BEL3:27:433:28:058:20 7.21137seh6120
358.667FVANDEN EYNDE Barbara45BELLES KHO-LANTAS3:28:123:28:128:20 7.2116v2fHEVILLERS
359.421MAETENS Yves51BEL3:27:143:28:178:20 7.2043v2hBRAINE-LE-COMTE
360.390LEFEBVRE Paulin35BELTHEODO TEMPO3:27:593:28:298:21 7.20138sehSAINT-DENIS
361.153BRENARD Brieuc32BELSPORTKIDS3:28:213:28:498:22 7.18139sehSOUVRET
362.662MEYVISCH Jean-Christophe39BELPAULINE FOREVER3:28:053:28:588:22 7.18140sehSOIGNIES
363.112EMPAIN Daniel43BEL3:28:503:29:028:22 7.18102v1hLA LOUVIÈRE
364.606VANSTEENBRUGGE Dominique48BEL3:28:113:29:058:22 7.17103v1hPECQ
365.560THONNARD Michael40BEL3:28:143:29:108:22 7.17104v1hESCANAFFLES
366.280FDUHAMEL Séverine44FRA3:28:343:29:238:23 7.1634v1fRONCQ
367.311GATTI Nicolas38BEL3:29:253:29:378:24 7.16141sehJETTE
368.473PARRINI Matteo20ITA3:29:523:30:038:25 7.14142sehBRAINE-LE-COMTE
369.657DEFER Jean-Claude36BELTHEODO TEMPO3:30:063:30:278:26 7.13143sehNIMY
370.540FSLIWINSKI Viviane59BELLES MOTIVÉS DE 3:30:283:30:448:26 7.123v3fSAINT-MARTIN
371.383LEBACQ Marc62BEL3:29:493:30:488:26 7.129v3hWAVRE
372.116BAPTIST Frédéric42BEL3:30:023:30:508:26 7.11105v1hRONQUIÈRES
373.202DASSY Hervé44BEL3:30:053:30:538:27 7.11106v1hJODOIGNE
374.465NIEUWENHUIJZE Leendert58NLD3:30:333:30:578:27 7.1144v2h'SHEER ARENDSKERKE
375.323GOEDEGEBURE Leo55NLD3:30:353:31:018:27 7.1145v2hGOES
376.281DUJARDIN Christophe45BELITMC23:30:533:31:078:27 7.11107v1hLE ROEULX
377.220FDEHOUST Marianne55BELLES MOUSQUETRAI3:30:433:31:138:27 7.104v3fSOIGNIES
378.364JORDAN Alain59BELN.A.C. NIVELLES3:31:203:31:488:29 7.0846v2hREVES
379.374LAMBERT Frédéric31BEL3:31:083:32:018:29 7.08144sehBRAINE-LE-COMTE
380.239FDEMARET Mélanie27BEL3:31:123:32:058:29 7.0717sefBRAINE-LE-COMTE
381.551FVANDERVEKEN Véronique41BEL3:31:363:32:428:31 7.0535v1fMARK
382.503RODRIGUEZ Jose51ESP3:31:483:32:468:31 7.0547v2hSAINTES
383.309FFUNDUK Stephanie43FRA3:32:063:33:108:32 7.0436v1fGALLAIX
384.610VERHOYE Filip36BELACP3:32:423:33:178:32 7.03145sehGOOIK
385.286DUPONT Sven45BELESM3:32:333:33:288:33 7.03108v1hNALINNES
386.170CATIN Nicolas40BEL3:32:533:33:328:33 7.03109v1hBRUXELLES
387.518FRYSSELINCK Vinciane40BEL3:33:073:33:388:33 7.0237v1fNIVELLES
388.159BUREAU Laurent41FRA3:34:233:35:088:37 6.97110v1hMAING
389.582VANDEN ABEELE Patrick59BEL3:34:383:35:428:38 6.9548v2hSINT PIETERS LEEUW
390.438MARSELLA Nicolas39BELTHE M&M'S BROTH3:35:453:36:028:39 6.94146sehSAINT-AMAND
391.484FPIERRON Odile50FRA3:35:333:36:378:40 6.9217v2fVIRGINAL
392.227DELBOUILLE Thierry49BEL3:35:483:36:458:41 6.92111v1hSOIGNIES
393.581VANDEN ABEELE Eddy48BEL3:36:203:37:178:42 6.90112v1hBUIZINGEN
394.676DE JONGHE Patrick59BEL3:36:093:37:298:42 6.9049v2hHALLE
395.298FLAMME Xavier43BELPARNASSE3:36:373:37:338:43 6.90113v1hSOIGNIES
396.113BAILLY Jean-Luc39BELTEAM DES CROISÉ3:36:383:37:338:43 6.90147sehLA LOUVIÈRE
397.304FFOSTER Hilda68BELO.E.H.3:38:373:39:588:48 6.825v3fHALLE (BRABANT)
398.381LAURENT Serge50BELLES GOTTIGNARDS3:39:423:40:108:49 6.8150v2hGOTTIGNIES
399.532SEMPOUX Gaetan30BELAFC BRAINE3:39:193:40:378:50 6.80148sehBRAINE-L'ALLEUD
400.526FSCOUPPE Céline21BELPARNASSE3:39:203:40:388:50 6.8018sefBRAINE-L'ALLEUD
401.405FLETERME Vanessa37BELVERTIGO3:40:323:40:478:50 6.7938v1fLENS
402.107FANDRÉ Nathalie49BELVERTGO3:40:343:40:498:50 6.7918v2fLENS
403.171FCAUFRIEZ Levina52BEL3:40:153:41:008:51 6.7919v2fNIVELLES
404.127BERTIN Frédéric44BEL3:40:413:41:188:52 6.78114v1hMONSTREUX
405.300FFOCAN Muriel40BELCSDYLE3:40:393:41:208:52 6.7839v1fCHAUMONT-GISTOUX
406.454FMONDOVITS Bénédicte47BELCSF MYSTÈRE3:40:313:41:448:53 6.7720v2fBRUXELLES
407.206FDE BEUGHER Chantal51BELFORESTOISE3:40:333:41:478:53 6.7621v2fBRUXELLES
408.658FDEMIN Lieve49BELMYSTÈRE3:40:353:41:478:53 6.7622v2fBRUXELLES
409.409FLIGNY Caroline55BELLA FORESTOISE3:40:393:41:488:53 6.766v3fBRUXELLES
410.521SALVATO Domenico53ITAMYSTERE CSF3:40:363:41:488:53 6.7651v2hBRUXELLES
411.501RIESTRA José Manuel46ESPMYSTÈRE3:40:373:41:488:53 6.76115v1hUCCLE
412.651MARZULLO Girolamo46ITA3:42:343:42:498:55 6.73116v1hNIVELLES
413.628WIBAUT Claude60BELTOTAL JOGGING /3:42:473:43:078:56 6.7210v3hRESSAIX
414.398FLEPAGE Helene44BELESM3:42:163:43:148:56 6.7240v1fJONCRET
415.325FGONZALEZ Mila47ESP3:42:223:43:168:56 6.7223v2fST-STEVENS-WOLUWE
416.243FDENEEF Carine45BELETE3:43:283:44:118:59 6.6924v2fMARCQ
417.661LUCAS Gregory41BEL3:45:013:45:579:03 6.64117v1hGOTTIGNIES
418.135FBLONDEEL Nina26FRA3:44:533:46:049:03 6.6419sefVILLENEUVE D'ASCQ
419.282FDUMONT Agnès61FRAVAFA3:44:563:46:089:03 6.637v3fWILLEMS
420.678MENIGAULT Denis62FRAVAFA3:45:033:46:139:03 6.6311v3hMAULDE
421.183FCHRISTOPHE Claudine60BEL3:46:133:46:589:05 6.618v3fSTERREBEEK
422.123JONNIEAUX Benoît34BELGAZELLES SNEFFO3:46:083:47:139:06 6.60149sehSENEFFE
423.579VANCRAEYNEST Geert50BELBRASSBAND ALSEM3:46:193:47:409:07 6.5952v2hHALLE
424.261DEVROE Luc45BEL3:47:283:48:029:08 6.58118v1hLOUPOIGNE
425.276FDUBOIS Delphine41BEL3:47:333:48:089:08 6.5841v1fBEVER
426.601VAN NIEUWENHOVE Philippe48BEL3:47:363:48:139:08 6.57119v1h7830
427.238DELVIGNE Cédric30BEL3:49:093:49:209:11 6.54150sehBRAINE-LE-COMTE
428.431MALCOURANT Claude61BELLES MOTIVÉS DE 3:49:073:49:239:11 6.5412v3hSAINT-MARTIN
429.613FVERPLAETSE Johanna45BELMYSTÈRE3:48:273:49:419:12 6.5325v2fFOREST
430.313GEERAERTS Jos56BELCSF/MYSTERE3:48:273:49:419:12 6.5353v2hBUIZINGEN
431.692FRIGA Sabine53BEL3:49:343:49:459:12 6.5326v2fNEUVILLE-EN-CONDROZ
432.134FBLONDEEL Marie32FRA3:48:563:50:069:13 6.5220sefVILLENEUVE D'ASCQ
433.416LUYCKFASSEEL Pascal53BEL3:49:323:50:149:13 6.5254v2hITTRE
434.482FPICARD Pascale56BEL3:50:483:51:469:17 6.479v3fDION
435.548STREIGNARD Elliot23BEL3:51:173:52:079:18 6.46151sehSAINT - HUBERT
436.423MAGNUS Peter56BELOEH3:50:473:52:099:18 6.4655v2hHALLE
437.615FVERSTICHEL Karin51BEL3:50:593:52:179:18 6.4627v2fCOURT_SAINT_ETIENNE
438.359FJANSSENS Chloë20BELGAZELLES DU PAR3:51:513:52:439:19 6.4521sefECAUSSINNES
439.360JANSSENS Philippe46BELGAZELLES DU PAR3:51:533:52:449:19 6.45120v1hECAUSSINNES
440.616VERSTRAETEN Eric52BEL3:53:043:53:569:22 6.4156v2hBERCHEM SAINTE AGATHE
441.395FLEMERCIER Roxane28BELNAC3:53:293:54:389:24 6.3922sefLONGUEVILLE
442.478PENING Christian69BELNAC3:53:413:54:509:24 6.3913v3hNIVELLES
443.314FGEULETTE Nathalie50BELNAC3:54:093:55:189:25 6.3728v2fNIVELLES
444.589VANDERHAEGEN Christian56BELHAC3:55:253:56:109:27 6.3557v2hHENNUYÈRES
445.512FROUSSEAU Mauricette51FRA3:55:243:56:109:27 6.3529v2fLA HULPE
446.612FVERMUYTEN Stéphanie39BELETE3:56:303:57:099:30 6.3342v1fTUBIZE
447.302FFORGIARINI Valérie45BELETE ENGHIEN3:56:293:57:099:30 6.3330v2fBIERGHES
448.207FDEBEURME Nathalie38FRA3:58:023:58:529:34 6.2843v1fMARCQ EN BAROEUL
449.242FDENAYER Helene38BEL4:00:234:01:309:40 6.2144v1fSCHAERBEEK
450.139BOON Dimitri47BEL4:00:234:01:319:40 6.21121v1hDIEGEM
451.400FLEPIECE Sylvie50BEL4:02:244:03:129:44 6.1731v2fWOLUWE ST ETIENNE
452.152FBOUVET Martine48BELLES GOTTIGNIARD4:03:454:04:079:46 6.1432v2fGOTTIGNIES
453.693FLASZLO Marianne48BEL4:04:034:04:429:48 6.1333v2f
454.291FENGELS Mireille51BEL4:04:304:05:209:49 6.1134v2fKRAAINEM
455.574FVANBOQUESTAELS Marine24BELTHEODO TEMPO4:04:554:05:219:49 6.1123sefMONS
456.382LAUWERS Bernard56BELNAC4:06:424:07:429:55 6.0658v2hBAULERS
457.450MICHIELS Rudi48BEL4:12:114:13:0710:08 5.93122v1hCINEY
458.125BERNARD Jean-Philippe44BELJET4:13:514:14:3710:12 5.89123v1hHENNUYERES
459.507ROLAND Philippe49BELTHEODO TEMPO4:14:364:15:0210:13 5.88124v1hLA LOUVIERE
460.506FROLAND Coralie23BELTHEODO TEMPO4:14:374:15:0310:13 5.8824sefLA LOUVIERE
461.505FROLAND Amelie23BELTHEODO TEMPO4:14:394:15:0310:13 5.8825sefLA LOUVIERE
462.530FSEL Fabienne52BELESM4:16:374:17:3310:19 5.8235v2fMARCINELLE
463.198CSIK Pascal54BEL4:16:384:17:3710:19 5.8259v2hMARCINELLE
464.317FGILLES Françoise58BELESM4:16:404:17:3910:19 5.8210v3fMONT SUR MARCHIENNE
465.166FCARLIER Lou49BELLES GOTTIGNARDS4:17:204:17:5510:19 5.8236v2fGOTTIGNIES
466.190CLYMANS Stéphane40BELJCPMF LESSINES4:18:474:19:5610:24 5.77125v1hLESSINES
467.1019PROCUREUR Laurent35BEL4:20:114:20:1310:25 5.76152seh
468.688FWERTZ Marie33BEL4:19:294:20:4010:26 5.7526sefDION-VALMONT
469.554TEMPESTA David27ITA4:25:284:25:5610:39 5.64153sehCLABECQ
470.357FJANSSEN Chloé26BELBERLINUS4:33:404:34:3210:59 5.4627sefBRUXELLES
471.420FMAERVOET Christel45BELBERLINUS4:33:394:34:3410:59 5.4637v2fBRUXELLES
472.358JANSSEN Philippe59BELBERLINUS4:33:394:34:3410:59 5.4660v2hVILVOORDE
473.1147FSTEUNEBRINK Mirjam39NLD4:39:224:39:2211:11 5.3745v1fEELDE
474.386FLEENEN Nadine56BEL4:39:414:40:5011:14 5.3411v3fITTRE VIRGINAL
475.234FDELIGNE Sandra47BEL4:43:054:44:0811:22 5.2838v2fQUENAST
476.452MIGOT Fabrice41BEL4:43:104:44:1111:23 5.28126v1hTUBIZE
477.436MARÉCHAL Julien28BEL4:46:264:47:3911:31 5.21154sehCUESMES
478.411FLOLLJEE Anusha29BEL4:46:274:47:4011:31 5.2128sefBRUXELLES
479.1067FGERARD Corinne40BEL4:49:314:50:1411:37 5.1746v1fBRAINE LE COMTE
DSQ646FASBENDER Pierre42BELv1hATTRE
DSQ458FMOULAERT Colette40BELJOGGANS - GANT3:04:463:05:40v1fBRUSSEL - JETTE
DSQ379LAOUREUX Denis42BEL3:11:153:11:22v1hBERCHEM-SAINTE-AGATHE
DSQ102FAELBRECHT Cécile51BEL3:12:073:12:07v2fNEUFMAISON
DSQ427MAINIL Sébastien36BEL3:17:153:17:15sehERBISOEUL
DNF639ALLART David45BELv1hCOURT ST ÉTIENNE
DNF155BROGNEZ Laurent37BELCABWsehCLABECQ
DNF193CORNELIS Renaud44BELv1hPETIT ENGHIEN
DNF387FLEFEBVRE Cindy20BELsefEVERE
DNF393LEJEUNE Tom43BELDÉ'NIVELLÉS+v1hNIVELLES
DNF695LÉONET Martin22BELsehFOSSES LA VILLE
DNF424MAGRITTE Olivier50BELNACv2hNIVELLES
DNF500REYNERS Pascal57BELTOUT LUI FAUT (v2hBRAINE L'ALLEUD
DNF533FSERVAIS Elodie20BELsefGENVAL
DNF558FTHILS Joelle56BELv3fALSEMBERG
DNF575VAN CAMP Jean-Francois43BELv1hSOMBREFFE
DNF: did not finish; DSQ: disqualified; Speed in km/h
Page: [1]